createdAt,value
2018-06-25T00:00:57.583Z,4.50
2018-06-25T00:03:30.924Z,4.60
2018-06-25T00:06:04.177Z,4.63
2018-06-25T00:08:37.441Z,4.80
2018-06-25T00:11:10.636Z,4.50
2018-06-25T00:13:43.888Z,4.80
2018-06-25T00:16:17.120Z,4.70
2018-06-25T00:18:50.452Z,4.90
2018-06-25T00:21:23.861Z,5.47
2018-06-25T00:23:57.187Z,6.47
2018-06-25T00:26:30.419Z,5.40
2018-06-25T00:29:03.668Z,5.73
2018-06-25T00:31:36.913Z,6.40
2018-06-25T00:34:10.313Z,7.63
2018-06-25T00:36:43.640Z,7.37
2018-06-25T00:39:17.044Z,10.10
2018-06-25T00:41:50.396Z,8.20
2018-06-25T00:44:23.756Z,8.70
2018-06-25T00:46:57.069Z,8.63
2018-06-25T00:49:30.296Z,9.10
2018-06-25T00:52:03.474Z,8.80
2018-06-25T00:54:36.736Z,8.40
2018-06-25T00:57:09.972Z,8.50
2018-06-25T00:59:53.233Z,11.53
2018-06-25T01:02:26.688Z,9.77
2018-06-25T01:04:59.996Z,9.20
2018-06-25T01:07:33.200Z,10.00
2018-06-25T01:10:06.449Z,10.63
2018-06-25T01:12:39.765Z,9.90
2018-06-25T01:15:13.221Z,11.13
2018-06-25T01:17:46.484Z,11.43
2018-06-25T01:20:19.728Z,10.43
2018-06-25T01:22:53.000Z,10.97
2018-06-25T01:25:26.361Z,10.67
2018-06-25T01:27:59.657Z,11.10
2018-06-25T01:30:32.876Z,10.33
2018-06-25T01:33:06.212Z,9.90
2018-06-25T01:35:39.416Z,11.17
2018-06-25T01:38:12.760Z,10.37
2018-06-25T01:40:46.109Z,10.37
2018-06-25T01:43:19.272Z,9.67
2018-06-25T01:45:52.536Z,10.30
2018-06-25T01:48:25.892Z,9.87
2018-06-25T01:50:59.213Z,9.70
2018-06-25T01:53:32.377Z,10.30
2018-06-25T01:56:05.652Z,10.27
2018-06-25T01:58:38.861Z,11.23
2018-06-25T02:01:12.099Z,10.70
2018-06-25T02:03:45.449Z,10.07
2018-06-25T02:06:18.641Z,10.43
2018-06-25T02:08:51.971Z,10.30
2018-06-25T02:11:25.312Z,10.20
2018-06-25T02:13:58.563Z,10.23
2018-06-25T02:16:31.921Z,11.60
2018-06-25T02:19:05.673Z,11.17
2018-06-25T02:21:38.905Z,11.83
2018-06-25T02:24:12.080Z,11.90
2018-06-25T02:26:45.455Z,11.60
2018-06-25T02:29:18.747Z,12.90
2018-06-25T02:31:51.981Z,12.53
2018-06-25T02:34:25.133Z,12.20
2018-06-25T02:36:58.464Z,14.23
2018-06-25T02:39:31.712Z,13.20
2018-06-25T02:42:05.014Z,12.43
2018-06-25T02:44:38.219Z,12.93
2018-06-25T02:47:11.445Z,13.90
2018-06-25T02:49:44.828Z,12.43
2018-06-25T02:52:18.045Z,12.57
2018-06-25T02:54:51.267Z,13.47
2018-06-25T02:57:24.505Z,13.67
2018-06-25T02:59:57.820Z,12.70
2018-06-25T03:02:31.032Z,12.03
2018-06-25T03:05:04.403Z,12.77
2018-06-25T03:07:37.891Z,12.10
2018-06-25T03:10:11.216Z,12.43
2018-06-25T03:12:44.551Z,11.93
2018-06-25T03:15:17.705Z,12.33
2018-06-25T03:17:51.039Z,11.50
2018-06-25T03:20:24.216Z,11.17
2018-06-25T03:22:57.752Z,10.37
2018-06-25T03:25:31.037Z,9.90
2018-06-25T03:28:04.319Z,10.20
2018-06-25T03:30:37.593Z,9.77
2018-06-25T03:33:11.037Z,9.23
2018-06-25T03:35:44.172Z,9.27
2018-06-25T03:38:17.504Z,9.03
2018-06-25T03:40:50.849Z,9.70
2018-06-25T03:43:24.237Z,9.47
2018-06-25T03:45:57.564Z,9.20
2018-06-25T03:48:30.816Z,8.47
2018-06-25T03:51:04.052Z,9.00
2018-06-25T03:53:37.340Z,9.50
2018-06-25T03:56:10.519Z,9.30
2018-06-25T03:58:43.860Z,9.67
2018-06-25T04:01:17.244Z,9.40
2018-06-25T04:03:50.596Z,9.07
2018-06-25T04:06:23.772Z,9.97
2018-06-25T04:08:57.132Z,9.00
2018-06-25T04:11:30.509Z,8.43
2018-06-25T04:14:04.048Z,9.37
2018-06-25T04:16:37.332Z,9.53
2018-06-25T04:19:10.509Z,8.63
2018-06-25T04:21:43.844Z,9.97
2018-06-25T04:24:17.239Z,9.87
2018-06-25T04:26:50.553Z,10.53
2018-06-25T04:29:23.990Z,9.50
2018-06-25T04:31:57.234Z,10.40
2018-06-25T04:34:30.632Z,10.23
2018-06-25T04:37:03.846Z,9.80
2018-06-25T04:39:37.141Z,9.70
2018-06-25T04:42:10.789Z,10.27
2018-06-25T04:44:44.098Z,9.90
2018-06-25T04:47:17.473Z,10.37
2018-06-25T04:49:50.696Z,10.80
2018-06-25T04:52:23.938Z,9.73
2018-06-25T04:54:57.244Z,10.30
2018-06-25T04:57:30.648Z,9.57
2018-06-25T05:00:04.105Z,10.00
2018-06-25T05:02:37.502Z,10.93
2018-06-25T05:05:10.965Z,10.60
2018-06-25T05:07:44.268Z,10.53
2018-06-25T05:10:17.688Z,10.77
2018-06-25T05:12:51.064Z,10.63
2018-06-25T05:15:24.299Z,10.63
2018-06-25T05:17:57.552Z,10.87
2018-06-25T05:20:30.931Z,10.93
2018-06-25T05:23:04.340Z,11.00
2018-06-25T05:25:37.592Z,11.03
2018-06-25T05:28:10.940Z,10.80
2018-06-25T05:30:44.239Z,10.00
2018-06-25T05:33:17.562Z,10.33
2018-06-25T05:35:50.832Z,10.80
2018-06-25T05:38:24.032Z,9.93
2018-06-25T05:40:57.336Z,10.43
2018-06-25T05:43:30.734Z,10.20
2018-06-25T05:46:03.977Z,10.63
2018-06-25T05:48:37.277Z,10.17
2018-06-25T05:51:10.673Z,11.30
2018-06-25T05:53:43.914Z,10.87
2018-06-25T05:56:17.340Z,10.63
2018-06-25T05:58:50.750Z,9.83
2018-06-25T06:01:23.908Z,8.93
2018-06-25T06:03:57.271Z,9.23
2018-06-25T06:06:30.607Z,8.63
2018-06-25T06:09:06.562Z,9.03
2018-06-25T06:11:39.888Z,8.77
2018-06-25T06:14:13.121Z,8.20
2018-06-25T06:16:46.454Z,8.77
2018-06-25T06:19:19.785Z,7.97
2018-06-25T06:21:53.139Z,8.37
2018-06-25T06:24:26.896Z,8.60
2018-06-25T06:27:00.072Z,8.30
2018-06-25T06:29:33.456Z,9.23
2018-06-25T06:32:06.677Z,8.20
2018-06-25T06:34:39.988Z,7.83
2018-06-25T06:37:13.420Z,8.40
2018-06-25T06:39:46.783Z,7.67
2018-06-25T06:42:20.070Z,10.73
2018-06-25T06:44:53.368Z,6.93
2018-06-25T06:47:26.711Z,7.43
2018-06-25T06:49:59.968Z,8.00
2018-06-25T06:52:33.347Z,8.07
2018-06-25T06:55:06.724Z,6.90
2018-06-25T06:57:40.089Z,6.90
2018-06-25T07:00:13.276Z,7.53
2018-06-25T07:02:46.530Z,7.70
2018-06-25T07:05:19.885Z,8.00
2018-06-25T07:07:53.388Z,9.00
2018-06-25T07:10:26.580Z,7.67
2018-06-25T07:12:59.816Z,7.00
2018-06-25T07:15:33.176Z,7.60
2018-06-25T07:18:06.776Z,7.10
2018-06-25T07:20:40.065Z,6.57
2018-06-25T07:23:13.278Z,7.17
2018-06-25T07:25:46.633Z,6.60
2018-06-25T07:28:19.825Z,6.63
2018-06-25T07:30:53.136Z,7.23
2018-06-25T07:33:26.400Z,7.50
2018-06-25T07:35:59.772Z,6.67
2018-06-25T07:38:32.978Z,6.87
2018-06-25T07:41:06.155Z,6.87
2018-06-25T07:43:39.376Z,6.93
2018-06-25T07:46:12.924Z,6.73
2018-06-25T07:48:46.141Z,6.43
2018-06-25T07:51:19.364Z,6.50
2018-06-25T07:53:52.740Z,6.97
2018-06-25T07:56:26.094Z,7.30
2018-06-25T07:58:59.337Z,6.97
2018-06-25T08:01:32.700Z,7.33
2018-06-25T08:04:05.915Z,6.53
2018-06-25T08:06:39.264Z,7.03
2018-06-25T08:09:12.773Z,6.10
2018-06-25T08:11:46.180Z,6.33
2018-06-25T08:14:19.465Z,6.80
2018-06-25T08:16:52.802Z,6.97
2018-06-25T08:19:26.212Z,5.53
2018-06-25T08:21:59.503Z,6.67
2018-06-25T08:24:32.697Z,6.00
2018-06-25T08:27:06.129Z,7.17
2018-06-25T08:29:39.549Z,7.20
2018-06-25T08:32:12.741Z,6.90
2018-06-25T08:34:46.056Z,7.23
2018-06-25T08:37:19.461Z,6.60
2018-06-25T08:39:52.760Z,8.40
2018-06-25T08:42:26.001Z,6.83
2018-06-25T08:44:59.276Z,6.70
2018-06-25T08:47:32.545Z,7.20
2018-06-25T08:50:05.800Z,6.50
2018-06-25T08:52:39.103Z,7.13
2018-06-25T08:55:12.513Z,7.83
2018-06-25T08:57:45.691Z,7.80
2018-06-25T09:00:19.080Z,7.30
2018-06-25T09:02:52.360Z,6.53
2018-06-25T09:05:25.752Z,7.77
2018-06-25T09:07:59.020Z,8.00
2018-06-25T09:10:32.400Z,6.83
2018-06-25T09:13:05.807Z,6.90
2018-06-25T09:15:39.062Z,6.83
2018-06-25T09:18:12.432Z,6.13
2018-06-25T09:20:45.680Z,6.20
2018-06-25T09:23:19.061Z,6.47
2018-06-25T09:25:52.332Z,6.30
2018-06-25T09:28:25.571Z,5.67
2018-06-25T09:30:58.839Z,9.63
2018-06-25T09:33:31.997Z,8.20
2018-06-25T09:36:05.252Z,6.00
2018-06-25T09:38:38.464Z,5.70
2018-06-25T09:41:11.898Z,6.87
2018-06-25T09:43:45.092Z,6.17
2018-06-25T09:46:18.308Z,6.63
2018-06-25T09:48:51.539Z,5.70
2018-06-25T09:51:24.684Z,6.27
2018-06-25T09:53:58.025Z,6.00
2018-06-25T09:56:31.373Z,5.90
2018-06-25T09:59:04.801Z,6.40
2018-06-25T10:01:38.044Z,5.83
2018-06-25T10:04:11.289Z,6.50
2018-06-25T10:06:44.541Z,6.17
2018-06-25T10:09:17.771Z,6.80
2018-06-25T10:11:51.089Z,6.77
2018-06-25T10:14:24.285Z,7.20
2018-06-25T10:16:57.496Z,6.70
2018-06-25T10:19:30.920Z,9.73
2018-06-25T10:22:04.340Z,9.87
2018-06-25T10:24:37.749Z,10.43
2018-06-25T10:27:11.057Z,11.37
2018-06-25T10:29:44.400Z,6.93
2018-06-25T10:32:17.708Z,7.97
2018-06-25T10:34:51.145Z,6.80
2018-06-25T10:37:24.464Z,5.97
2018-06-25T10:39:57.719Z,9.07
2018-06-25T10:42:31.161Z,6.80
2018-06-25T10:45:04.468Z,11.37
2018-06-25T10:47:37.673Z,6.30
2018-06-25T10:50:11.084Z,6.40
2018-06-25T10:52:44.269Z,16.40
2018-06-25T10:55:17.692Z,7.17
2018-06-25T10:57:51.028Z,5.97
2018-06-25T11:00:24.458Z,13.43
2018-06-25T11:02:57.684Z,13.73
2018-06-25T11:05:30.889Z,6.57
2018-06-25T11:08:04.283Z,5.73
2018-06-25T11:10:37.661Z,19.00
2018-06-25T11:13:10.964Z,14.63
2018-06-25T11:15:44.301Z,6.27
2018-06-25T11:18:17.519Z,7.90
2018-06-25T11:20:50.892Z,11.00
2018-06-25T11:23:24.075Z,11.53
2018-06-25T11:25:57.411Z,6.90
2018-06-25T11:28:30.605Z,9.77
2018-06-25T11:31:03.812Z,7.37
2018-06-25T11:33:37.235Z,10.57
2018-06-25T11:36:10.575Z,18.63
2018-06-25T11:38:43.906Z,44.90
2018-06-25T11:41:17.304Z,26.40
2018-06-25T11:43:50.628Z,162.77
2018-06-25T11:46:23.972Z,170.80
2018-06-25T11:48:57.207Z,227.60
2018-06-25T11:51:30.533Z,307.57
2018-06-25T11:54:03.960Z,440.97
2018-06-25T11:56:37.292Z,150.93
2018-06-25T11:59:10.713Z,65.10
2018-06-25T12:01:43.903Z,540.23
2018-06-25T12:04:17.109Z,171.40
2018-06-25T12:06:50.426Z,247.53
2018-06-25T12:09:23.642Z,25.57
2018-06-25T12:11:56.816Z,119.63
2018-06-25T12:14:30.057Z,126.73
2018-06-25T12:17:03.444Z,45.63
2018-06-25T12:19:37.568Z,164.50
2018-06-25T12:22:10.913Z,20.63
2018-06-25T12:24:44.254Z,17.73
2018-06-25T12:27:17.436Z,81.17
2018-06-25T12:29:50.780Z,57.20
2018-06-25T12:32:23.976Z,34.67
2018-06-25T12:34:57.370Z,33.50
2018-06-25T12:37:30.700Z,29.10
2018-06-25T12:40:04.196Z,8.03
2018-06-25T12:42:37.379Z,5.27
2018-06-25T12:45:10.768Z,7.90
2018-06-25T12:47:43.988Z,4.97
2018-06-25T12:50:17.364Z,6.70
2018-06-25T12:52:50.592Z,6.70
2018-06-25T12:55:24.025Z,7.53
2018-06-25T12:57:57.241Z,9.20
2018-06-25T13:00:30.442Z,9.37
2018-06-25T13:03:03.787Z,13.17
2018-06-25T13:05:37.112Z,12.00
2018-06-25T13:08:10.367Z,8.23
2018-06-25T13:10:43.651Z,7.60
2018-06-25T13:13:16.851Z,9.60
2018-06-25T13:15:50.225Z,9.20
2018-06-25T13:18:23.502Z,9.77
2018-06-25T13:20:56.753Z,21.50
2018-06-25T13:23:30.168Z,8.70
2018-06-25T13:26:03.585Z,11.97
2018-06-25T13:28:36.794Z,16.13
2018-06-25T13:31:10.129Z,9.43
2018-06-25T13:33:43.331Z,11.43
2018-06-25T13:36:17.241Z,10.07
2018-06-25T13:38:50.673Z,9.30
2018-06-25T13:41:24.048Z,10.40
2018-06-25T13:43:57.433Z,13.30
2018-06-25T13:46:30.809Z,12.93
2018-06-25T13:49:04.197Z,24.27
2018-06-25T13:51:37.733Z,9.77
2018-06-25T13:54:11.121Z,8.83
2018-06-25T13:56:44.605Z,13.60
2018-06-25T13:59:18.163Z,12.00
2018-06-25T14:01:51.445Z,14.27
2018-06-25T14:04:24.612Z,9.27
2018-06-25T14:06:57.956Z,10.10
2018-06-25T14:09:31.488Z,18.20
2018-06-25T14:12:05.093Z,27.83
2018-06-25T14:14:38.451Z,9.57
2018-06-25T14:17:11.805Z,11.10
2018-06-25T14:19:45.052Z,9.90
2018-06-25T14:22:18.518Z,9.23
2018-06-25T14:24:57.684Z,11.97
2018-06-25T14:27:36.732Z,9.57
2018-06-25T14:30:17.220Z,9.60
2018-06-25T14:32:55.180Z,10.17
2018-06-25T14:35:28.470Z,14.17
2018-06-25T14:38:01.820Z,10.00
2018-06-25T14:40:35.243Z,12.73
2018-06-25T14:43:08.561Z,24.10
2018-06-25T14:45:41.860Z,10.93
2018-06-25T14:48:15.246Z,7.53
2018-06-25T14:50:48.489Z,7.90
2018-06-25T14:53:21.904Z,7.33
2018-06-25T14:55:55.196Z,7.20
2018-06-25T14:58:28.600Z,6.53
2018-06-25T15:01:02.065Z,29.67
2018-06-25T15:03:35.429Z,14.23
2018-06-25T15:06:08.952Z,9.70
2018-06-25T15:08:42.308Z,15.47
2018-06-25T15:11:15.542Z,6.50
2018-06-25T15:13:48.819Z,6.43
2018-06-25T15:16:22.065Z,5.73
2018-06-25T15:18:55.298Z,10.40
2018-06-25T15:21:28.551Z,11.63
2018-06-25T15:24:01.949Z,7.03
2018-06-25T15:26:35.337Z,6.47
2018-06-25T15:29:08.717Z,10.97
2018-06-25T15:31:41.981Z,7.67
2018-06-25T15:34:15.411Z,6.23
2018-06-25T15:36:48.694Z,17.30
2018-06-25T15:39:22.136Z,9.87
2018-06-25T15:41:55.508Z,7.13
2018-06-25T15:44:28.964Z,9.83
2018-06-25T15:47:02.360Z,8.83
2018-06-25T15:49:35.698Z,18.50
2018-06-25T15:52:09.196Z,10.03
2018-06-25T15:54:42.372Z,7.10
2018-06-25T15:57:15.644Z,13.77
2018-06-25T15:59:48.848Z,7.07
2018-06-25T16:02:22.096Z,22.13
2018-06-25T16:04:55.438Z,7.87
2018-06-25T16:07:28.845Z,7.63
2018-06-25T16:10:02.205Z,7.47
2018-06-25T16:12:35.560Z,11.57
2018-06-25T16:15:08.784Z,7.37
2018-06-25T16:17:42.109Z,7.63
2018-06-25T16:20:15.412Z,16.07
2018-06-25T16:22:48.784Z,14.73
2018-06-25T16:25:22.009Z,7.73
2018-06-25T16:27:55.361Z,7.57
2018-06-25T16:30:28.700Z,6.90
2018-06-25T16:33:02.095Z,7.27
2018-06-25T16:35:35.619Z,7.40
2018-06-25T16:38:08.996Z,7.23
2018-06-25T16:40:42.407Z,22.73
2018-06-25T16:43:15.723Z,9.73
2018-06-25T16:45:49.053Z,10.10
2018-06-25T16:48:22.296Z,8.90
2018-06-25T16:50:55.714Z,12.83
2018-06-25T16:53:29.020Z,24.23
2018-06-25T16:56:02.420Z,11.47
2018-06-25T16:58:35.856Z,10.20
2018-06-25T17:01:09.061Z,9.73
2018-06-25T17:03:42.392Z,7.60
2018-06-25T17:06:15.779Z,7.53
2018-06-25T17:08:49.057Z,7.93
2018-06-25T17:11:22.330Z,7.13
2018-06-25T17:13:55.465Z,7.83
2018-06-25T17:16:28.814Z,8.03
2018-06-25T17:19:02.210Z,9.77
2018-06-25T17:21:35.388Z,7.63
2018-06-25T17:24:08.756Z,6.73
2018-06-25T17:26:41.977Z,6.93
2018-06-25T17:29:15.188Z,7.10
2018-06-25T17:31:48.456Z,11.67
2018-06-25T17:34:21.820Z,6.73
2018-06-25T17:36:55.214Z,6.60
2018-06-25T17:39:28.640Z,6.80
2018-06-25T17:42:01.796Z,7.87
2018-06-25T17:44:35.034Z,8.23
2018-06-25T17:47:08.439Z,11.77
2018-06-25T17:49:41.752Z,5.73
2018-06-25T17:52:14.952Z,6.27
2018-06-25T17:54:48.266Z,6.40
2018-06-25T17:57:21.492Z,5.23
2018-06-25T17:59:54.816Z,3.50
2018-06-25T18:02:28.326Z,4.87
2018-06-25T18:05:01.769Z,7.47
2018-06-25T18:07:35.094Z,4.00
2018-06-25T18:10:08.284Z,2.70
2018-06-25T18:12:41.577Z,19.00
2018-06-25T18:15:14.849Z,2.80
2018-06-25T18:17:48.093Z,3.90
2018-06-25T18:20:21.340Z,3.60
2018-06-25T18:22:54.581Z,3.93
2018-06-25T18:25:27.944Z,8.57
2018-06-25T18:28:01.301Z,3.97
2018-06-25T18:30:34.672Z,4.50
2018-06-25T18:33:08.156Z,3.43
2018-06-25T18:35:41.580Z,3.40
2018-06-25T18:38:14.980Z,5.80
2018-06-25T18:40:48.309Z,4.80
2018-06-25T18:43:21.552Z,3.90
2018-06-25T18:45:54.936Z,4.83
2018-06-25T18:48:28.275Z,3.10
2018-06-25T18:51:01.736Z,6.27
2018-06-25T18:53:35.012Z,4.73
2018-06-25T18:56:08.294Z,3.00
2018-06-25T18:58:41.694Z,4.13
2018-06-25T19:01:14.977Z,3.60
2018-06-25T19:03:48.312Z,5.73
2018-06-25T19:06:21.580Z,8.80
2018-06-25T19:08:54.836Z,3.70
2018-06-25T19:11:28.269Z,4.53
2018-06-25T19:14:01.513Z,4.53
2018-06-25T19:16:35.249Z,5.00
2018-06-25T19:19:08.664Z,4.87
2018-06-25T19:21:41.935Z,7.13
2018-06-25T19:24:15.304Z,4.37
2018-06-25T19:26:48.525Z,4.17
2018-06-25T19:29:21.977Z,4.40
2018-06-25T19:31:55.297Z,3.60
2018-06-25T19:34:28.556Z,4.93
2018-06-25T19:37:01.988Z,4.33
2018-06-25T19:39:35.376Z,3.97
2018-06-25T19:42:08.848Z,3.87
2018-06-25T19:44:42.100Z,3.37
2018-06-25T19:47:15.533Z,3.60
2018-06-25T19:49:48.838Z,3.80
2018-06-25T19:52:22.216Z,3.53
2018-06-25T19:54:55.508Z,5.93
2018-06-25T19:57:28.689Z,4.43
2018-06-25T20:00:02.157Z,3.80
2018-06-25T20:02:35.360Z,3.73
2018-06-25T20:05:08.608Z,4.97
2018-06-25T20:07:42.024Z,4.40
2018-06-25T20:10:15.289Z,3.33
2018-06-25T20:12:48.532Z,4.03
2018-06-25T20:15:21.979Z,3.90
2018-06-25T20:17:55.193Z,4.10
2018-06-25T20:20:28.484Z,3.37
2018-06-25T20:23:01.864Z,12.97
2018-06-25T20:25:35.245Z,19.70
2018-06-25T20:28:08.432Z,7.30
2018-06-25T20:30:41.624Z,7.47
2018-06-25T20:33:14.812Z,2.73
2018-06-25T20:35:48.180Z,3.00
2018-06-25T20:38:21.576Z,3.53
2018-06-25T20:40:54.969Z,3.37
2018-06-25T20:43:28.247Z,2.60
2018-06-25T20:46:01.612Z,3.00
2018-06-25T20:48:34.902Z,5.80
2018-06-25T20:51:08.316Z,2.80
2018-06-25T20:53:41.557Z,2.50
2018-06-25T20:56:14.801Z,2.50
2018-06-25T20:58:48.052Z,2.50
2018-06-25T21:01:21.432Z,2.90
2018-06-25T21:03:54.784Z,1.80
2018-06-25T21:06:28.181Z,1.93
2018-06-25T21:09:01.364Z,1.90
2018-06-25T21:11:34.764Z,2.00
2018-06-25T21:14:08.161Z,2.30
2018-06-25T21:16:41.527Z,2.67
2018-06-25T21:19:14.873Z,2.27
2018-06-25T21:21:48.172Z,2.73
2018-06-25T21:24:21.349Z,3.03
2018-06-25T21:26:54.590Z,2.57
2018-06-25T21:29:27.872Z,2.70
2018-06-25T21:32:01.072Z,2.80
2018-06-25T21:34:34.460Z,2.90
2018-06-25T21:37:07.679Z,3.00
2018-06-25T21:39:40.986Z,3.10
2018-06-25T21:42:14.266Z,3.03
2018-06-25T21:44:47.468Z,3.10
2018-06-25T21:47:20.903Z,2.73
2018-06-25T21:49:54.145Z,2.80
2018-06-25T21:52:27.472Z,2.97
2018-06-25T21:55:00.814Z,3.03
2018-06-25T21:57:34.084Z,3.20
2018-06-25T22:00:09.777Z,3.20
2018-06-25T22:02:43.100Z,4.00
2018-06-25T22:05:16.488Z,3.77
2018-06-25T22:07:49.807Z,3.70
2018-06-25T22:10:23.168Z,3.40
2018-06-25T22:12:56.497Z,3.57
2018-06-25T22:15:29.869Z,4.10
2018-06-25T22:18:03.628Z,4.47
2018-06-25T22:20:37.144Z,3.80
2018-06-25T22:23:10.504Z,4.10
2018-06-25T22:25:43.656Z,4.83
2018-06-25T22:28:16.848Z,4.37
2018-06-25T22:30:50.060Z,4.77
2018-06-25T22:33:23.468Z,5.57
2018-06-25T22:35:56.684Z,5.00
2018-06-25T22:38:30.309Z,5.20
2018-06-25T22:41:03.567Z,10.83
2018-06-25T22:43:36.821Z,5.37
2018-06-25T22:46:10.024Z,19.83
2018-06-25T22:48:43.441Z,9.33
2018-06-25T22:51:16.764Z,27.23
2018-06-25T22:53:50.144Z,20.93
2018-06-25T22:56:23.664Z,10.43
2018-06-25T22:58:56.978Z,32.20
2018-06-25T23:01:30.385Z,136.87
2018-06-25T23:04:03.788Z,257.77
2018-06-25T23:06:37.080Z,140.87
2018-06-25T23:09:11.084Z,99.17
2018-06-25T23:11:44.288Z,152.50
2018-06-25T23:14:17.501Z,97.20
2018-06-25T23:16:50.738Z,442.10
2018-06-25T23:19:23.936Z,574.70
2018-06-25T23:21:57.252Z,289.03
2018-06-25T23:24:30.472Z,328.63
2018-06-25T23:27:03.668Z,320.07
2018-06-25T23:29:36.883Z,392.77
2018-06-25T23:32:10.072Z,429.87
2018-06-25T23:34:43.389Z,575.10
2018-06-25T23:37:16.832Z,503.47
2018-06-25T23:39:50.148Z,461.13
2018-06-25T23:42:23.544Z,784.20
2018-06-25T23:44:56.816Z,751.80
2018-06-25T23:47:30.008Z,851.20
2018-06-25T23:50:03.468Z,902.23
2018-06-25T23:52:36.772Z,957.13
2018-06-25T23:55:10.037Z,914.43
2018-06-25T23:57:43.329Z,764.37
